sensor_id;sensor_type;location;lat;lon;timestamp;pressure;altitude;pressure_sealevel;temperature;humidity
15050;BME280;7622;42.724;23.250;2024-02-26T00:01:03;94167.22;;;8.45;100.00
15050;BME280;7622;42.724;23.250;2024-02-26T00:03:33;94171.91;;;8.59;100.00
15050;BME280;7622;42.724;23.250;2024-02-26T00:06:01;94165.69;;;8.52;100.00
15050;BME280;7622;42.724;23.250;2024-02-26T00:08:28;94163.91;;;8.53;100.00
15050;BME280;7622;42.724;23.250;2024-02-26T00:10:54;94162.03;;;8.45;100.00
15050;BME280;7622;42.724;23.250;2024-02-26T00:13:21;94164.41;;;8.29;100.00
15050;BME280;7622;42.724;23.250;2024-02-26T00:15:48;94163.81;;;8.45;100.00
15050;BME280;7622;42.724;23.250;2024-02-26T00:18:14;94088.06;;;7.88;100.00
15050;BME280;7622;42.724;23.250;2024-02-26T00:20:42;94155.34;;;8.15;100.00
15050;BME280;7622;42.724;23.250;2024-02-26T00:23:09;94168.59;;;7.93;100.00
15050;BME280;7622;42.724;23.250;2024-02-26T00:25:36;94162.50;;;8.31;100.00
15050;BME280;7622;42.724;23.250;2024-02-26T00:28:03;94159.63;;;8.24;100.00
15050;BME280;7622;42.724;23.250;2024-02-26T00:30:30;94143.41;;;8.42;100.00
15050;BME280;7622;42.724;23.250;2024-02-26T00:32:57;94155.66;;;8.30;100.00
15050;BME280;7622;42.724;23.250;2024-02-26T00:35:23;94143.56;;;8.30;100.00
15050;BME280;7622;42.724;23.250;2024-02-26T00:37:51;94142.72;;;8.40;100.00
15050;BME280;7622;42.724;23.250;2024-02-26T00:40:18;94143.69;;;8.39;100.00
15050;BME280;7622;42.724;23.250;2024-02-26T00:42:46;94145.88;;;8.34;100.00
15050;BME280;7622;42.724;23.250;2024-02-26T00:45:15;94139.34;;;8.29;100.00
15050;BME280;7622;42.724;23.250;2024-02-26T00:47:42;94127.25;;;8.20;100.00
15050;BME280;7622;42.724;23.250;2024-02-26T00:50:10;94131.19;;;8.24;100.00
15050;BME280;7622;42.724;23.250;2024-02-26T00:52:37;94133.50;;;8.27;100.00
15050;BME280;7622;42.724;23.250;2024-02-26T00:55:06;94129.97;;;8.28;100.00
15050;BME280;7622;42.724;23.250;2024-02-26T00:57:33;94124.63;;;8.40;100.00
15050;BME280;7622;42.724;23.250;2024-02-26T01:00:00;94116.84;;;8.40;100.00
15050;BME280;7622;42.724;23.250;2024-02-26T01:02:27;94126.69;;;8.36;100.00
15050;BME280;7622;42.724;23.250;2024-02-26T01:04:53;94128.28;;;8.37;100.00
15050;BME280;7622;42.724;23.250;2024-02-26T01:07:20;94126.97;;;8.33;100.00
15050;BME280;7622;42.724;23.250;2024-02-26T01:09:47;94133.91;;;8.33;100.00
15050;BME280;7622;42.724;23.250;2024-02-26T01:12:15;94123.28;;;8.36;100.00
15050;BME280;7622;42.724;23.250;2024-02-26T01:14:42;94123.91;;;8.47;100.00
15050;BME280;7622;42.724;23.250;2024-02-26T01:17:08;94119.81;;;8.45;100.00
15050;BME280;7622;42.724;23.250;2024-02-26T01:19:35;94122.97;;;8.39;100.00
15050;BME280;7622;42.724;23.250;2024-02-26T01:22:02;94117.69;;;8.58;100.00
15050;BME280;7622;42.724;23.250;2024-02-26T01:24:29;94113.75;;;8.36;100.00
15050;BME280;7622;42.724;23.250;2024-02-26T01:26:55;94118.03;;;8.45;100.00
15050;BME280;7622;42.724;23.250;2024-02-26T01:29:24;94114.94;;;8.42;100.00
15050;BME280;7622;42.724;23.250;2024-02-26T01:31:50;94116.56;;;8.43;100.00
15050;BME280;7622;42.724;23.250;2024-02-26T01:34:17;94115.31;;;8.47;100.00
15050;BME280;7622;42.724;23.250;2024-02-26T01:36:44;94108.41;;;8.65;100.00
15050;BME280;7622;42.724;23.250;2024-02-26T01:39:11;94103.63;;;8.70;100.00
15050;BME280;7622;42.724;23.250;2024-02-26T01:41:38;94103.81;;;8.59;100.00
15050;BME280;7622;42.724;23.250;2024-02-26T01:44:04;94099.97;;;8.63;100.00
15050;BME280;7622;42.724;23.250;2024-02-26T01:46:34;94105.53;;;8.68;100.00
15050;BME280;7622;42.724;23.250;2024-02-26T01:49:02;94106.78;;;8.64;100.00
15050;BME280;7622;42.724;23.250;2024-02-26T01:51:29;94101.97;;;8.69;100.00
15050;BME280;7622;42.724;23.250;2024-02-26T01:53:56;94102.88;;;8.78;100.00
15050;BME280;7622;42.724;23.250;2024-02-26T01:56:24;94098.22;;;8.81;100.00
15050;BME280;7622;42.724;23.250;2024-02-26T01:58:53;94105.47;;;8.78;100.00
15050;BME280;7622;42.724;23.250;2024-02-26T02:01:21;94105.75;;;8.75;100.00
15050;BME280;7622;42.724;23.250;2024-02-26T02:03:50;94098.81;;;8.75;100.00
15050;BME280;7622;42.724;23.250;2024-02-26T02:06:17;94094.22;;;8.69;100.00
15050;BME280;7622;42.724;23.250;2024-02-26T02:08:46;94099.84;;;8.82;100.00
15050;BME280;7622;42.724;23.250;2024-02-26T02:11:17;94093.03;;;8.81;100.00
15050;BME280;7622;42.724;23.250;2024-02-26T02:13:45;94088.44;;;8.75;100.00
15050;BME280;7622;42.724;23.250;2024-02-26T02:16:13;94094.13;;;8.79;100.00
15050;BME280;7622;42.724;23.250;2024-02-26T02:18:39;94099.72;;;8.84;100.00
15050;BME280;7622;42.724;23.250;2024-02-26T02:21:07;94095.53;;;8.73;100.00
15050;BME280;7622;42.724;23.250;2024-02-26T02:23:34;94095.34;;;8.84;100.00
15050;BME280;7622;42.724;23.250;2024-02-26T02:26:01;94096.91;;;8.77;100.00
15050;BME280;7622;42.724;23.250;2024-02-26T02:28:28;94086.69;;;8.93;100.00
15050;BME280;7622;42.724;23.250;2024-02-26T02:30:55;94094.53;;;8.84;100.00
15050;BME280;7622;42.724;23.250;2024-02-26T02:33:23;94093.19;;;8.80;100.00
15050;BME280;7622;42.724;23.250;2024-02-26T02:38:38;94087.19;;;8.79;100.00
15050;BME280;7622;42.724;23.250;2024-02-26T02:41:04;94094.94;;;8.79;100.00
15050;BME280;7622;42.724;23.250;2024-02-26T02:43:31;94083.22;;;8.85;100.00
15050;BME280;7622;42.724;23.250;2024-02-26T02:45:58;94094.69;;;8.82;100.00
15050;BME280;7622;42.724;23.250;2024-02-26T02:48:24;94085.53;;;8.60;100.00
15050;BME280;7622;42.724;23.250;2024-02-26T02:50:52;94099.63;;;8.76;100.00
15050;BME280;7622;42.724;23.250;2024-02-26T02:53:18;94093.50;;;8.77;100.00
15050;BME280;7622;42.724;23.250;2024-02-26T02:55:46;94102.66;;;8.89;100.00
15050;BME280;7622;42.724;23.250;2024-02-26T02:58:13;94098.31;;;8.89;100.00
15050;BME280;7622;42.724;23.250;2024-02-26T03:00:40;94110.06;;;9.01;100.00
15050;BME280;7622;42.724;23.250;2024-02-26T03:03:07;94105.41;;;9.05;100.00
15050;BME280;7622;42.724;23.250;2024-02-26T03:05:34;94103.84;;;8.94;100.00
15050;BME280;7622;42.724;23.250;2024-02-26T03:08:04;94098.97;;;9.09;100.00
15050;BME280;7622;42.724;23.250;2024-02-26T03:10:32;94095.72;;;8.89;100.00
15050;BME280;7622;42.724;23.250;2024-02-26T03:13:00;94106.25;;;8.78;100.00
15050;BME280;7622;42.724;23.250;2024-02-26T03:15:27;94113.56;;;8.65;100.00
15050;BME280;7622;42.724;23.250;2024-02-26T03:17:53;94101.16;;;8.68;100.00
15050;BME280;7622;42.724;23.250;2024-02-26T03:20:20;94104.25;;;8.72;100.00
15050;BME280;7622;42.724;23.250;2024-02-26T03:22:47;94102.81;;;8.87;100.00
15050;BME280;7622;42.724;23.250;2024-02-26T03:25:13;94102.06;;;8.77;100.00
15050;BME280;7622;42.724;23.250;2024-02-26T03:27:40;94104.66;;;8.77;100.00
15050;BME280;7622;42.724;23.250;2024-02-26T03:30:08;94090.00;;;8.86;100.00
15050;BME280;7622;42.724;23.250;2024-02-26T03:32:35;94085.81;;;8.85;100.00
15050;BME280;7622;42.724;23.250;2024-02-26T03:35:04;94079.50;;;8.87;100.00
15050;BME280;7622;42.724;23.250;2024-02-26T03:37:31;94070.47;;;8.74;100.00
15050;BME280;7622;42.724;23.250;2024-02-26T03:39:58;94079.28;;;8.81;100.00
15050;BME280;7622;42.724;23.250;2024-02-26T03:42:26;94085.28;;;8.81;100.00
15050;BME280;7622;42.724;23.250;2024-02-26T03:44:53;94073.38;;;8.88;100.00
15050;BME280;7622;42.724;23.250;2024-02-26T03:47:21;94084.53;;;8.71;100.00
15050;BME280;7622;42.724;23.250;2024-02-26T03:49:47;94092.16;;;8.90;100.00
15050;BME280;7622;42.724;23.250;2024-02-26T03:52:14;94076.47;;;8.74;100.00
15050;BME280;7622;42.724;23.250;2024-02-26T03:54:41;94082.00;;;8.79;100.00
15050;BME280;7622;42.724;23.250;2024-02-26T03:57:07;94080.84;;;8.91;100.00
15050;BME280;7622;42.724;23.250;2024-02-26T03:59:34;94067.38;;;9.05;100.00
15050;BME280;7622;42.724;23.250;2024-02-26T04:02:01;94073.66;;;8.85;100.00
15050;BME280;7622;42.724;23.250;2024-02-26T04:04:29;94072.09;;;8.92;100.00
15050;BME280;7622;42.724;23.250;2024-02-26T04:06:56;94071.13;;;8.93;100.00
15050;BME280;7622;42.724;23.250;2024-02-26T04:09:22;94067.31;;;8.97;100.00
15050;BME280;7622;42.724;23.250;2024-02-26T04:11:49;94064.56;;;8.81;100.00
15050;BME280;7622;42.724;23.250;2024-02-26T04:14:16;94058.88;;;8.95;100.00
15050;BME280;7622;42.724;23.250;2024-02-26T04:16:43;94068.34;;;9.04;100.00
15050;BME280;7622;42.724;23.250;2024-02-26T04:19:09;94072.78;;;8.94;100.00
15050;BME280;7622;42.724;23.250;2024-02-26T04:21:41;94068.13;;;8.98;100.00
15050;BME280;7622;42.724;23.250;2024-02-26T04:24:11;94060.13;;;8.91;100.00
15050;BME280;7622;42.724;23.250;2024-02-26T04:26:39;94062.06;;;8.89;100.00
15050;BME280;7622;42.724;23.250;2024-02-26T04:29:05;94061.81;;;8.83;100.00
15050;BME280;7622;42.724;23.250;2024-02-26T04:31:32;94064.47;;;8.73;100.00
15050;BME280;7622;42.724;23.250;2024-02-26T04:33:59;94069.66;;;8.73;100.00
15050;BME280;7622;42.724;23.250;2024-02-26T04:36:26;94063.09;;;8.96;100.00
15050;BME280;7622;42.724;23.250;2024-02-26T04:38:54;94059.53;;;8.62;100.00
15050;BME280;7622;42.724;23.250;2024-02-26T04:41:21;94064.59;;;8.54;100.00
15050;BME280;7622;42.724;23.250;2024-02-26T04:43:47;94068.59;;;8.66;100.00
15050;BME280;7622;42.724;23.250;2024-02-26T04:46:14;94070.41;;;8.83;100.00
15050;BME280;7622;42.724;23.250;2024-02-26T04:48:41;94072.56;;;8.70;100.00
15050;BME280;7622;42.724;23.250;2024-02-26T04:51:08;94086.81;;;8.74;100.00
15050;BME280;7622;42.724;23.250;2024-02-26T04:53:34;94074.25;;;8.79;100.00
15050;BME280;7622;42.724;23.250;2024-02-26T04:56:03;94073.41;;;8.79;100.00
15050;BME280;7622;42.724;23.250;2024-02-26T04:58:30;94075.72;;;8.64;100.00
15050;BME280;7622;42.724;23.250;2024-02-26T05:00:56;94085.91;;;8.48;100.00
15050;BME280;7622;42.724;23.250;2024-02-26T05:03:24;94090.00;;;8.68;100.00
15050;BME280;7622;42.724;23.250;2024-02-26T05:05:50;94089.44;;;8.47;100.00
15050;BME280;7622;42.724;23.250;2024-02-26T05:08:17;94088.53;;;8.38;100.00
15050;BME280;7622;42.724;23.250;2024-02-26T05:10:45;94087.44;;;8.04;100.00
15050;BME280;7622;42.724;23.250;2024-02-26T05:13:13;94096.38;;;8.09;100.00
15050;BME280;7622;42.724;23.250;2024-02-26T05:15:41;94096.31;;;8.01;100.00
15050;BME280;7622;42.724;23.250;2024-02-26T05:18:07;94107.03;;;8.06;100.00
15050;BME280;7622;42.724;23.250;2024-02-26T05:20:34;94101.84;;;8.06;100.00
15050;BME280;7622;42.724;23.250;2024-02-26T05:23:03;94098.19;;;8.09;100.00
15050;BME280;7622;42.724;23.250;2024-02-26T05:25:30;94100.13;;;7.97;100.00
15050;BME280;7622;42.724;23.250;2024-02-26T05:27:56;94109.25;;;8.01;100.00
15050;BME280;7622;42.724;23.250;2024-02-26T05:30:24;94123.38;;;7.97;100.00
15050;BME280;7622;42.724;23.250;2024-02-26T05:32:52;94126.16;;;7.86;100.00
15050;BME280;7622;42.724;23.250;2024-02-26T05:35:19;94123.31;;;7.79;100.00
15050;BME280;7622;42.724;23.250;2024-02-26T05:37:45;94123.94;;;7.91;100.00
15050;BME280;7622;42.724;23.250;2024-02-26T05:40:13;94130.00;;;8.09;100.00
15050;BME280;7622;42.724;23.250;2024-02-26T05:42:39;94132.91;;;8.06;100.00
15050;BME280;7622;42.724;23.250;2024-02-26T05:45:07;94127.22;;;7.93;100.00
15050;BME280;7622;42.724;23.250;2024-02-26T05:47:35;94136.63;;;7.94;100.00
15050;BME280;7622;42.724;23.250;2024-02-26T05:50:08;94129.34;;;8.07;100.00
15050;BME280;7622;42.724;23.250;2024-02-26T05:52:36;94133.97;;;8.13;100.00
15050;BME280;7622;42.724;23.250;2024-02-26T05:55:03;94134.97;;;8.30;100.00
15050;BME280;7622;42.724;23.250;2024-02-26T05:57:30;94130.63;;;8.30;100.00
15050;BME280;7622;42.724;23.250;2024-02-26T05:59:57;94129.53;;;8.33;100.00
15050;BME280;7622;42.724;23.250;2024-02-26T06:02:26;94139.34;;;8.29;100.00
15050;BME280;7622;42.724;23.250;2024-02-26T06:04:54;94133.81;;;8.52;100.00
15050;BME280;7622;42.724;23.250;2024-02-26T06:07:20;94139.22;;;8.58;100.00
15050;BME280;7622;42.724;23.250;2024-02-26T06:09:47;94138.66;;;8.64;100.00
15050;BME280;7622;42.724;23.250;2024-02-26T06:12:14;94143.03;;;8.64;100.00
15050;BME280;7622;42.724;23.250;2024-02-26T06:14:42;94130.16;;;8.72;100.00
15050;BME280;7622;42.724;23.250;2024-02-26T06:17:08;94142.72;;;8.67;100.00
15050;BME280;7622;42.724;23.250;2024-02-26T06:19:35;94140.25;;;8.93;100.00
15050;BME280;7622;42.724;23.250;2024-02-26T06:22:03;94142.50;;;9.05;100.00
15050;BME280;7622;42.724;23.250;2024-02-26T06:24:30;94142.19;;;9.08;100.00
15050;BME280;7622;42.724;23.250;2024-02-26T06:26:56;94143.22;;;9.16;100.00
15050;BME280;7622;42.724;23.250;2024-02-26T06:29:23;94138.94;;;9.06;100.00
15050;BME280;7622;42.724;23.250;2024-02-26T06:31:50;94137.00;;;9.08;100.00
15050;BME280;7622;42.724;23.250;2024-02-26T06:34:17;94145.16;;;9.14;100.00
15050;BME280;7622;42.724;23.250;2024-02-26T06:36:43;94143.69;;;9.11;100.00
15050;BME280;7622;42.724;23.250;2024-02-26T06:39:11;94149.81;;;9.28;100.00
15050;BME280;7622;42.724;23.250;2024-02-26T06:41:38;94154.34;;;9.26;100.00
15050;BME280;7622;42.724;23.250;2024-02-26T06:44:05;94152.06;;;9.23;100.00
15050;BME280;7622;42.724;23.250;2024-02-26T06:46:31;94147.22;;;9.28;100.00
15050;BME280;7622;42.724;23.250;2024-02-26T06:48:58;94156.72;;;9.37;100.00
15050;BME280;7622;42.724;23.250;2024-02-26T06:51:25;94145.69;;;9.17;100.00
15050;BME280;7622;42.724;23.250;2024-02-26T06:53:51;94151.91;;;9.24;100.00
15050;BME280;7622;42.724;23.250;2024-02-26T06:56:19;94160.56;;;9.33;100.00
15050;BME280;7622;42.724;23.250;2024-02-26T06:58:46;94166.28;;;9.19;100.00
15050;BME280;7622;42.724;23.250;2024-02-26T07:01:13;94152.81;;;9.33;100.00
15050;BME280;7622;42.724;23.250;2024-02-26T07:03:40;94168.50;;;9.31;100.00
15050;BME280;7622;42.724;23.250;2024-02-26T07:06:07;94166.84;;;9.30;100.00
15050;BME280;7622;42.724;23.250;2024-02-26T07:08:34;94161.38;;;9.16;100.00
15050;BME280;7622;42.724;23.250;2024-02-26T07:11:01;94158.03;;;9.23;100.00
15050;BME280;7622;42.724;23.250;2024-02-26T07:13:29;94159.91;;;9.31;100.00
15050;BME280;7622;42.724;23.250;2024-02-26T07:15:56;94145.81;;;9.16;100.00
15050;BME280;7622;42.724;23.250;2024-02-26T07:18:22;94154.56;;;9.15;100.00
15050;BME280;7622;42.724;23.250;2024-02-26T07:20:49;94171.28;;;9.20;100.00
15050;BME280;7622;42.724;23.250;2024-02-26T07:23:15;94170.19;;;9.23;100.00
15050;BME280;7622;42.724;23.250;2024-02-26T07:25:43;94175.66;;;9.20;100.00
15050;BME280;7622;42.724;23.250;2024-02-26T07:28:09;94169.00;;;9.17;100.00
15050;BME280;7622;42.724;23.250;2024-02-26T07:30:37;94170.47;;;9.20;100.00
15050;BME280;7622;42.724;23.250;2024-02-26T07:33:04;94168.16;;;8.99;100.00
15050;BME280;7622;42.724;23.250;2024-02-26T07:35:31;94175.19;;;9.06;100.00
15050;BME280;7622;42.724;23.250;2024-02-26T07:37:58;94163.50;;;9.02;100.00
15050;BME280;7622;42.724;23.250;2024-02-26T07:40:25;94170.59;;;9.00;100.00
15050;BME280;7622;42.724;23.250;2024-02-26T07:42:52;94167.22;;;9.18;100.00
15050;BME280;7622;42.724;23.250;2024-02-26T07:45:18;94178.19;;;9.29;100.00
15050;BME280;7622;42.724;23.250;2024-02-26T07:47:47;94169.53;;;9.38;100.00
15050;BME280;7622;42.724;23.250;2024-02-26T07:50:14;94102.66;;;8.89;100.00
15050;BME280;7622;42.724;23.250;2024-02-26T07:52:41;94169.66;;;9.37;100.00
15050;BME280;7622;42.724;23.250;2024-02-26T07:55:08;94164.13;;;9.32;100.00
15050;BME280;7622;42.724;23.250;2024-02-26T07:57:35;94159.00;;;9.22;100.00
15050;BME280;7622;42.724;23.250;2024-02-26T08:00:02;94169.75;;;9.45;100.00
15050;BME280;7622;42.724;23.250;2024-02-26T08:02:29;94158.41;;;9.46;100.00
15050;BME280;7622;42.724;23.250;2024-02-26T08:04:57;94161.94;;;9.63;100.00
15050;BME280;7622;42.724;23.250;2024-02-26T08:07:24;94163.72;;;9.80;100.00
15050;BME280;7622;42.724;23.250;2024-02-26T08:09:50;94159.22;;;9.64;100.00
15050;BME280;7622;42.724;23.250;2024-02-26T08:12:17;94165.13;;;9.74;100.00
15050;BME280;7622;42.724;23.250;2024-02-26T08:14:43;94157.91;;;9.86;100.00
15050;BME280;7622;42.724;23.250;2024-02-26T08:17:10;94168.31;;;9.68;100.00
15050;BME280;7622;42.724;23.250;2024-02-26T08:19:37;94169.19;;;9.77;100.00
15050;BME280;7622;42.724;23.250;2024-02-26T08:22:05;94162.03;;;9.97;100.00
15050;BME280;7622;42.724;23.250;2024-02-26T08:24:32;94160.66;;;10.10;100.00
15050;BME280;7622;42.724;23.250;2024-02-26T08:26:58;94166.25;;;9.98;100.00
15050;BME280;7622;42.724;23.250;2024-02-26T08:29:25;94168.53;;;10.18;100.00
15050;BME280;7622;42.724;23.250;2024-02-26T08:31:52;94151.53;;;10.24;100.00
15050;BME280;7622;42.724;23.250;2024-02-26T08:34:18;94160.38;;;10.39;100.00
15050;BME280;7622;42.724;23.250;2024-02-26T08:36:45;94154.50;;;10.29;100.00
15050;BME280;7622;42.724;23.250;2024-02-26T08:39:15;94163.41;;;10.60;100.00
15050;BME280;7622;42.724;23.250;2024-02-26T08:41:42;94160.91;;;10.85;100.00
15050;BME280;7622;42.724;23.250;2024-02-26T08:44:09;94158.31;;;10.93;100.00
15050;BME280;7622;42.724;23.250;2024-02-26T08:46:36;94157.38;;;11.02;100.00
15050;BME280;7622;42.724;23.250;2024-02-26T08:49:03;94162.09;;;11.06;100.00
15050;BME280;7622;42.724;23.250;2024-02-26T08:51:29;94158.94;;;10.87;100.00
15050;BME280;7622;42.724;23.250;2024-02-26T08:53:56;94137.28;;;11.12;100.00
15050;BME280;7622;42.724;23.250;2024-02-26T08:56:24;94159.88;;;11.20;100.00
15050;BME280;7622;42.724;23.250;2024-02-26T08:58:50;94159.09;;;11.43;100.00
15050;BME280;7622;42.724;23.250;2024-02-26T09:01:19;94158.53;;;11.16;100.00
15050;BME280;7622;42.724;23.250;2024-02-26T09:03:45;94150.31;;;11.44;100.00
15050;BME280;7622;42.724;23.250;2024-02-26T09:06:14;94157.81;;;11.48;100.00
15050;BME280;7622;42.724;23.250;2024-02-26T09:08:41;94126.22;;;11.34;100.00
15050;BME280;7622;42.724;23.250;2024-02-26T09:11:08;94148.03;;;11.58;100.00
15050;BME280;7622;42.724;23.250;2024-02-26T09:13:37;94144.81;;;11.48;100.00
15050;BME280;7622;42.724;23.250;2024-02-26T09:16:04;94143.50;;;11.52;100.00
15050;BME280;7622;42.724;23.250;2024-02-26T09:18:31;94135.88;;;11.74;100.00
15050;BME280;7622;42.724;23.250;2024-02-26T09:20:57;94137.69;;;11.82;100.00
15050;BME280;7622;42.724;23.250;2024-02-26T09:23:24;94137.34;;;11.93;100.00
15050;BME280;7622;42.724;23.250;2024-02-26T09:25:51;94144.25;;;12.25;100.00
15050;BME280;7622;42.724;23.250;2024-02-26T09:28:18;94138.59;;;12.21;100.00
15050;BME280;7622;42.724;23.250;2024-02-26T09:30:46;94132.16;;;12.48;100.00
15050;BME280;7622;42.724;23.250;2024-02-26T09:33:13;94129.13;;;12.37;100.00
15050;BME280;7622;42.724;23.250;2024-02-26T09:35:40;94131.13;;;12.66;100.00
15050;BME280;7622;42.724;23.250;2024-02-26T09:38:07;94128.66;;;12.72;100.00
15050;BME280;7622;42.724;23.250;2024-02-26T09:40:34;94127.19;;;13.00;100.00
15050;BME280;7622;42.724;23.250;2024-02-26T09:43:01;94129.34;;;13.28;100.00
15050;BME280;7622;42.724;23.250;2024-02-26T09:45:32;94126.53;;;13.37;100.00
15050;BME280;7622;42.724;23.250;2024-02-26T09:48:02;94120.09;;;13.71;100.00
15050;BME280;7622;42.724;23.250;2024-02-26T09:50:31;94118.56;;;13.76;100.00
15050;BME280;7622;42.724;23.250;2024-02-26T09:52:57;94119.06;;;13.95;100.00
15050;BME280;7622;42.724;23.250;2024-02-26T09:55:27;94112.75;;;13.89;100.00
15050;BME280;7622;42.724;23.250;2024-02-26T09:57:55;94113.50;;;14.12;100.00
15050;BME280;7622;42.724;23.250;2024-02-26T10:00:25;94119.59;;;14.42;100.00
15050;BME280;7622;42.724;23.250;2024-02-26T10:02:57;94114.06;;;14.23;100.00
15050;BME280;7622;42.724;23.250;2024-02-26T10:05:26;94103.94;;;14.05;100.00
15050;BME280;7622;42.724;23.250;2024-02-26T10:07:53;94106.75;;;14.03;100.00
15050;BME280;7622;42.724;23.250;2024-02-26T10:10:21;94107.38;;;14.05;100.00
15050;BME280;7622;42.724;23.250;2024-02-26T10:12:48;94109.91;;;14.13;100.00
15050;BME280;7622;42.724;23.250;2024-02-26T10:15:15;94059.63;;;13.97;100.00
15050;BME280;7622;42.724;23.250;2024-02-26T10:17:42;94097.31;;;14.17;100.00
15050;BME280;7622;42.724;23.250;2024-02-26T10:20:13;94095.16;;;14.35;100.00
15050;BME280;7622;42.724;23.250;2024-02-26T10:22:42;94094.16;;;14.36;100.00
15050;BME280;7622;42.724;23.250;2024-02-26T10:25:09;94094.72;;;14.46;100.00
15050;BME280;7622;42.724;23.250;2024-02-26T10:27:36;94071.81;;;14.19;100.00
15050;BME280;7622;42.724;23.250;2024-02-26T10:30:03;94094.50;;;14.33;100.00
15050;BME280;7622;42.724;23.250;2024-02-26T10:32:30;94085.69;;;14.34;100.00
15050;BME280;7622;42.724;23.250;2024-02-26T10:34:58;94076.13;;;14.12;100.00
15050;BME280;7622;42.724;23.250;2024-02-26T10:37:25;94073.19;;;13.77;100.00
15050;BME280;7622;42.724;23.250;2024-02-26T10:39:53;94071.69;;;13.98;100.00
15050;BME280;7622;42.724;23.250;2024-02-26T10:42:20;94077.63;;;13.92;100.00
15050;BME280;7622;42.724;23.250;2024-02-26T10:44:46;94067.06;;;13.70;100.00
15050;BME280;7622;42.724;23.250;2024-02-26T10:47:14;94077.97;;;13.74;100.00
15050;BME280;7622;42.724;23.250;2024-02-26T10:49:45;94070.84;;;13.68;100.00
15050;BME280;7622;42.724;23.250;2024-02-26T10:52:13;94067.41;;;13.53;100.00
15050;BME280;7622;42.724;23.250;2024-02-26T10:54:41;94063.50;;;13.49;100.00
15050;BME280;7622;42.724;23.250;2024-02-26T10:57:11;94066.66;;;13.44;100.00
15050;BME280;7622;42.724;23.250;2024-02-26T10:59:39;94052.56;;;13.53;100.00
15050;BME280;7622;42.724;23.250;2024-02-26T11:02:08;94057.72;;;13.61;100.00
15050;BME280;7622;42.724;23.250;2024-02-26T11:04:37;94057.97;;;13.66;100.00
15050;BME280;7622;42.724;23.250;2024-02-26T11:07:05;94051.41;;;13.70;100.00
15050;BME280;7622;42.724;23.250;2024-02-26T11:09:32;94045.75;;;13.67;100.00
15050;BME280;7622;42.724;23.250;2024-02-26T11:11:59;94031.34;;;13.71;100.00
15050;BME280;7622;42.724;23.250;2024-02-26T11:14:29;94048.00;;;13.85;100.00
15050;BME280;7622;42.724;23.250;2024-02-26T11:16:57;94052.94;;;13.65;100.00
15050;BME280;7622;42.724;23.250;2024-02-26T11:19:25;94040.88;;;13.64;100.00
15050;BME280;7622;42.724;23.250;2024-02-26T11:21:53;94051.19;;;13.57;100.00
15050;BME280;7622;42.724;23.250;2024-02-26T11:24:19;94041.59;;;13.72;100.00
15050;BME280;7622;42.724;23.250;2024-02-26T11:26:50;94052.50;;;13.61;100.00
15050;BME280;7622;42.724;23.250;2024-02-26T11:29:26;94040.44;;;13.60;100.00
15050;BME280;7622;42.724;23.250;2024-02-26T11:31:55;94042.19;;;13.83;100.00
15050;BME280;7622;42.724;23.250;2024-02-26T11:34:22;94031.44;;;13.77;100.00
15050;BME280;7622;42.724;23.250;2024-02-26T11:36:49;94038.34;;;13.70;100.00
15050;BME280;7622;42.724;23.250;2024-02-26T11:39:17;94033.25;;;13.92;100.00
15050;BME280;7622;42.724;23.250;2024-02-26T11:41:44;94041.91;;;14.07;100.00
15050;BME280;7622;42.724;23.250;2024-02-26T11:44:10;94039.22;;;14.15;100.00
15050;BME280;7622;42.724;23.250;2024-02-26T11:46:39;94032.44;;;14.20;100.00
15050;BME280;7622;42.724;23.250;2024-02-26T11:49:31;94033.63;;;14.47;100.00
15050;BME280;7622;42.724;23.250;2024-02-26T11:52:00;94025.50;;;14.28;100.00
15050;BME280;7622;42.724;23.250;2024-02-26T11:54:38;94035.72;;;14.23;100.00
15050;BME280;7622;42.724;23.250;2024-02-26T11:57:20;94021.03;;;14.22;100.00
15050;BME280;7622;42.724;23.250;2024-02-26T11:59:47;94033.00;;;14.31;100.00
15050;BME280;7622;42.724;23.250;2024-02-26T12:02:40;93964.56;;;13.91;100.00
15050;BME280;7622;42.724;23.250;2024-02-26T12:05:10;94019.41;;;14.20;100.00
15050;BME280;7622;42.724;23.250;2024-02-26T12:07:40;94033.34;;;13.98;100.00
15050;BME280;7622;42.724;23.250;2024-02-26T12:10:26;94028.59;;;14.02;100.00
15050;BME280;7622;42.724;23.250;2024-02-26T12:12:55;94026.25;;;14.07;100.00
15050;BME280;7622;42.724;23.250;2024-02-26T12:15:27;94028.59;;;14.16;100.00
15050;BME280;7622;42.724;23.250;2024-02-26T12:17:58;94030.91;;;14.26;100.00
15050;BME280;7622;42.724;23.250;2024-02-26T12:20:26;94037.69;;;14.50;100.00
15050;BME280;7622;42.724;23.250;2024-02-26T12:22:53;94023.09;;;14.41;100.00
15050;BME280;7622;42.724;23.250;2024-02-26T12:25:23;94027.06;;;14.51;100.00
15050;BME280;7622;42.724;23.250;2024-02-26T12:27:50;94022.25;;;14.70;100.00
15050;BME280;7622;42.724;23.250;2024-02-26T12:30:17;94041.81;;;14.59;100.00
15050;BME280;7622;42.724;23.250;2024-02-26T12:32:44;94041.59;;;14.75;99.77
15050;BME280;7622;42.724;23.250;2024-02-26T12:35:11;94043.63;;;14.58;97.48
15050;BME280;7622;42.724;23.250;2024-02-26T12:37:39;94042.25;;;14.63;92.22
15050;BME280;7622;42.724;23.250;2024-02-26T12:40:08;94047.84;;;14.59;92.50
15050;BME280;7622;42.724;23.250;2024-02-26T12:42:35;94034.16;;;14.57;91.92
15050;BME280;7622;42.724;23.250;2024-02-26T12:45:06;94046.03;;;14.75;87.56
15050;BME280;7622;42.724;23.250;2024-02-26T12:47:38;94038.81;;;14.77;85.34
15050;BME280;7622;42.724;23.250;2024-02-26T12:50:06;94047.66;;;14.61;87.50
15050;BME280;7622;42.724;23.250;2024-02-26T12:52:34;94036.16;;;14.55;87.64
15050;BME280;7622;42.724;23.250;2024-02-26T12:55:03;94032.53;;;14.56;86.51
15050;BME280;7622;42.724;23.250;2024-02-26T12:57:31;94032.47;;;14.50;84.87
15050;BME280;7622;42.724;23.250;2024-02-26T12:59:59;94038.63;;;14.78;83.80
15050;BME280;7622;42.724;23.250;2024-02-26T13:02:26;94028.34;;;14.77;82.50